sensor_id;sensor_type;location;lat;lon;timestamp;temperature;humidity
12006;DHT22;6062;47.294;12.182;2022-10-30T00:00:41;14.00;47.70
12006;DHT22;6062;47.294;12.182;2022-10-30T00:03:12;14.10;47.80
12006;DHT22;6062;47.294;12.182;2022-10-30T00:05:42;14.10;47.80
12006;DHT22;6062;47.294;12.182;2022-10-30T00:08:12;14.10;47.70
12006;DHT22;6062;47.294;12.182;2022-10-30T00:10:39;14.10;47.70
12006;DHT22;6062;47.294;12.182;2022-10-30T00:13:05;14.10;47.60
12006;DHT22;6062;47.294;12.182;2022-10-30T00:15:32;14.00;47.60
12006;DHT22;6062;47.294;12.182;2022-10-30T00:17:58;14.10;47.60
12006;DHT22;6062;47.294;12.182;2022-10-30T00:20:24;14.00;47.40
12006;DHT22;6062;47.294;12.182;2022-10-30T00:22:49;14.00;47.40
12006;DHT22;6062;47.294;12.182;2022-10-30T00:25:15;14.00;47.50
12006;DHT22;6062;47.294;12.182;2022-10-30T00:27:41;14.00;47.30
12006;DHT22;6062;47.294;12.182;2022-10-30T00:30:07;13.90;47.30
12006;DHT22;6062;47.294;12.182;2022-10-30T00:32:33;13.90;47.60
12006;DHT22;6062;47.294;12.182;2022-10-30T00:34:59;13.90;47.60
12006;DHT22;6062;47.294;12.182;2022-10-30T00:37:24;13.80;47.60
12006;DHT22;6062;47.294;12.182;2022-10-30T00:39:50;13.80;47.70
12006;DHT22;6062;47.294;12.182;2022-10-30T00:42:15;13.80;47.70
12006;DHT22;6062;47.294;12.182;2022-10-30T00:44:48;13.80;47.90
12006;DHT22;6062;47.294;12.182;2022-10-30T00:47:35;13.70;47.80
12006;DHT22;6062;47.294;12.182;2022-10-30T00:50:24;13.70;48.30
12006;DHT22;6062;47.294;12.182;2022-10-30T00:53:06;13.60;47.90
12006;DHT22;6062;47.294;12.182;2022-10-30T00:55:43;13.60;48.00
12006;DHT22;6062;47.294;12.182;2022-10-30T00:58:15;13.60;48.20
12006;DHT22;6062;47.294;12.182;2022-10-30T01:00:46;13.50;48.40
12006;DHT22;6062;47.294;12.182;2022-10-30T01:03:17;13.50;48.30
12006;DHT22;6062;47.294;12.182;2022-10-30T01:05:47;13.50;48.20
12006;DHT22;6062;47.294;12.182;2022-10-30T01:08:18;13.50;48.20
12006;DHT22;6062;47.294;12.182;2022-10-30T01:10:45;13.50;48.20
12006;DHT22;6062;47.294;12.182;2022-10-30T01:13:12;13.50;48.40
12006;DHT22;6062;47.294;12.182;2022-10-30T01:19:38;13.50;48.50
12006;DHT22;6062;47.294;12.182;2022-10-30T01:22:25;13.50;48.40
12006;DHT22;6062;47.294;12.182;2022-10-30T01:34:09;13.40;48.20
12006;DHT22;6062;47.294;12.182;2022-10-30T01:36:51;13.40;48.50
12006;DHT22;6062;47.294;12.182;2022-10-30T01:39:31;13.40;48.20
12006;DHT22;6062;47.294;12.182;2022-10-30T01:42:07;13.40;48.40
12006;DHT22;6062;47.294;12.182;2022-10-30T01:44:34;13.40;48.50
12006;DHT22;6062;47.294;12.182;2022-10-30T01:47:22;13.40;49.00
12006;DHT22;6062;47.294;12.182;2022-10-30T01:50:08;13.40;48.30
12006;DHT22;6062;47.294;12.182;2022-10-30T01:53:09;13.40;48.30
12006;DHT22;6062;47.294;12.182;2022-10-30T01:59:14;13.40;48.20
12006;DHT22;6062;47.294;12.182;2022-10-30T02:01:42;13.40;48.30
12006;DHT22;6062;47.294;12.182;2022-10-30T02:04:09;13.40;48.10
12006;DHT22;6062;47.294;12.182;2022-10-30T02:06:37;13.40;48.10
12006;DHT22;6062;47.294;12.182;2022-10-30T02:09:04;13.40;48.10
12006;DHT22;6062;47.294;12.182;2022-10-30T02:11:32;13.40;48.10
12006;DHT22;6062;47.294;12.182;2022-10-30T02:14:01;13.40;48.10
12006;DHT22;6062;47.294;12.182;2022-10-30T02:16:32;13.40;48.00
12006;DHT22;6062;47.294;12.182;2022-10-30T02:19:01;13.40;48.00
12006;DHT22;6062;47.294;12.182;2022-10-30T02:21:27;13.50;47.80
12006;DHT22;6062;47.294;12.182;2022-10-30T02:23:53;13.50;48.00
12006;DHT22;6062;47.294;12.182;2022-10-30T02:26:19;13.50;48.10
12006;DHT22;6062;47.294;12.182;2022-10-30T02:28:45;13.50;47.80
12006;DHT22;6062;47.294;12.182;2022-10-30T02:31:10;13.60;47.80
12006;DHT22;6062;47.294;12.182;2022-10-30T02:33:36;13.60;47.70
12006;DHT22;6062;47.294;12.182;2022-10-30T02:36:02;13.60;47.80
12006;DHT22;6062;47.294;12.182;2022-10-30T02:38:28;13.60;47.60
12006;DHT22;6062;47.294;12.182;2022-10-30T02:40:56;13.70;47.80
12006;DHT22;6062;47.294;12.182;2022-10-30T02:43:23;13.60;47.80
12006;DHT22;6062;47.294;12.182;2022-10-30T02:45:50;13.60;47.60
12006;DHT22;6062;47.294;12.182;2022-10-30T02:48:16;13.70;47.80
12006;DHT22;6062;47.294;12.182;2022-10-30T02:50:42;13.70;47.60
12006;DHT22;6062;47.294;12.182;2022-10-30T02:53:07;13.70;48.30
12006;DHT22;6062;47.294;12.182;2022-10-30T02:55:33;13.70;47.40
12006;DHT22;6062;47.294;12.182;2022-10-30T02:57:59;13.70;47.50
12006;DHT22;6062;47.294;12.182;2022-10-30T03:00:24;13.70;47.50
12006;DHT22;6062;47.294;12.182;2022-10-30T03:02:54;13.70;47.50
12006;DHT22;6062;47.294;12.182;2022-10-30T03:05:20;13.80;47.40
12006;DHT22;6062;47.294;12.182;2022-10-30T03:07:46;13.70;47.30
12006;DHT22;6062;47.294;12.182;2022-10-30T03:10:13;13.70;47.40
12006;DHT22;6062;47.294;12.182;2022-10-30T03:12:39;13.80;47.40
12006;DHT22;6062;47.294;12.182;2022-10-30T03:15:05;13.70;47.20
12006;DHT22;6062;47.294;12.182;2022-10-30T03:17:31;13.70;47.40
12006;DHT22;6062;47.294;12.182;2022-10-30T03:19:57;13.80;47.30
12006;DHT22;6062;47.294;12.182;2022-10-30T03:22:23;13.80;47.10
12006;DHT22;6062;47.294;12.182;2022-10-30T03:24:48;13.90;47.30
12006;DHT22;6062;47.294;12.182;2022-10-30T03:27:14;13.80;47.30
12006;DHT22;6062;47.294;12.182;2022-10-30T03:29:39;13.80;47.20
12006;DHT22;6062;47.294;12.182;2022-10-30T03:32:11;13.80;47.20
12006;DHT22;6062;47.294;12.182;2022-10-30T03:34:37;13.80;47.10
12006;DHT22;6062;47.294;12.182;2022-10-30T03:37:03;13.80;47.20
12006;DHT22;6062;47.294;12.182;2022-10-30T03:39:29;13.80;47.30
12006;DHT22;6062;47.294;12.182;2022-10-30T03:41:55;13.80;47.10
12006;DHT22;6062;47.294;12.182;2022-10-30T03:44:21;13.70;47.20
12006;DHT22;6062;47.294;12.182;2022-10-30T03:46:46;13.70;47.20
12006;DHT22;6062;47.294;12.182;2022-10-30T03:49:12;13.70;47.30
12006;DHT22;6062;47.294;12.182;2022-10-30T03:51:38;13.70;47.20
12006;DHT22;6062;47.294;12.182;2022-10-30T03:54:03;13.70;47.00
12006;DHT22;6062;47.294;12.182;2022-10-30T03:56:29;13.70;47.20
12006;DHT22;6062;47.294;12.182;2022-10-30T03:58:55;13.70;47.10
12006;DHT22;6062;47.294;12.182;2022-10-30T04:01:20;13.70;47.10
12006;DHT22;6062;47.294;12.182;2022-10-30T04:03:46;13.70;47.00
12006;DHT22;6062;47.294;12.182;2022-10-30T04:06:12;13.70;47.20
12006;DHT22;6062;47.294;12.182;2022-10-30T04:08:37;13.60;47.10
12006;DHT22;6062;47.294;12.182;2022-10-30T04:11:03;13.70;47.30
12006;DHT22;6062;47.294;12.182;2022-10-30T04:13:29;13.60;47.30
12006;DHT22;6062;47.294;12.182;2022-10-30T04:15:55;13.60;47.10
12006;DHT22;6062;47.294;12.182;2022-10-30T04:18:21;13.60;47.20
12006;DHT22;6062;47.294;12.182;2022-10-30T04:20:47;13.60;47.20
12006;DHT22;6062;47.294;12.182;2022-10-30T04:23:15;13.60;47.20
12006;DHT22;6062;47.294;12.182;2022-10-30T04:25:43;13.60;47.30
12006;DHT22;6062;47.294;12.182;2022-10-30T04:28:09;13.60;47.40
12006;DHT22;6062;47.294;12.182;2022-10-30T04:30:35;13.60;47.40
12006;DHT22;6062;47.294;12.182;2022-10-30T04:33:04;13.60;47.30
12006;DHT22;6062;47.294;12.182;2022-10-30T04:35:33;13.60;47.20
12006;DHT22;6062;47.294;12.182;2022-10-30T04:38:08;13.60;47.30
12006;DHT22;6062;47.294;12.182;2022-10-30T04:40:37;13.60;47.20
12006;DHT22;6062;47.294;12.182;2022-10-30T04:43:05;13.60;47.10
12006;DHT22;6062;47.294;12.182;2022-10-30T04:45:32;13.60;47.20
12006;DHT22;6062;47.294;12.182;2022-10-30T04:48:04;13.60;47.30
12006;DHT22;6062;47.294;12.182;2022-10-30T04:50:35;13.60;47.30
12006;DHT22;6062;47.294;12.182;2022-10-30T04:53:27;13.70;47.30
12006;DHT22;6062;47.294;12.182;2022-10-30T04:55:53;13.60;47.50
12006;DHT22;6062;47.294;12.182;2022-10-30T04:58:20;13.60;47.50
12006;DHT22;6062;47.294;12.182;2022-10-30T05:00:45;13.60;47.30
12006;DHT22;6062;47.294;12.182;2022-10-30T05:03:18;13.70;47.40
12006;DHT22;6062;47.294;12.182;2022-10-30T05:05:59;13.60;47.40
12006;DHT22;6062;47.294;12.182;2022-10-30T05:08:27;13.70;47.50
12006;DHT22;6062;47.294;12.182;2022-10-30T05:10:55;13.70;47.40
12006;DHT22;6062;47.294;12.182;2022-10-30T05:13:21;13.70;47.30
12006;DHT22;6062;47.294;12.182;2022-10-30T05:15:46;13.70;47.40
12006;DHT22;6062;47.294;12.182;2022-10-30T05:18:12;13.70;47.50
12006;DHT22;6062;47.294;12.182;2022-10-30T05:20:38;13.60;47.60
12006;DHT22;6062;47.294;12.182;2022-10-30T05:23:04;13.60;47.40
12006;DHT22;6062;47.294;12.182;2022-10-30T05:25:30;13.60;47.40
12006;DHT22;6062;47.294;12.182;2022-10-30T05:28:01;13.50;47.30
12006;DHT22;6062;47.294;12.182;2022-10-30T05:30:29;13.50;47.50
12006;DHT22;6062;47.294;12.182;2022-10-30T05:33:01;13.50;47.60
12006;DHT22;6062;47.294;12.182;2022-10-30T05:35:28;13.50;47.60
12006;DHT22;6062;47.294;12.182;2022-10-30T05:37:57;13.50;47.80
12006;DHT22;6062;47.294;12.182;2022-10-30T05:40:23;13.40;47.80
12006;DHT22;6062;47.294;12.182;2022-10-30T05:42:50;13.40;47.80
12006;DHT22;6062;47.294;12.182;2022-10-30T05:45:16;13.40;47.80
12006;DHT22;6062;47.294;12.182;2022-10-30T05:47:42;13.40;48.00
12006;DHT22;6062;47.294;12.182;2022-10-30T05:50:09;13.40;48.00
12006;DHT22;6062;47.294;12.182;2022-10-30T05:52:36;13.50;48.10
12006;DHT22;6062;47.294;12.182;2022-10-30T05:55:02;13.50;48.10
12006;DHT22;6062;47.294;12.182;2022-10-30T05:57:29;13.50;48.00
12006;DHT22;6062;47.294;12.182;2022-10-30T05:59:57;13.50;47.90
12006;DHT22;6062;47.294;12.182;2022-10-30T06:02:23;13.50;48.10
12006;DHT22;6062;47.294;12.182;2022-10-30T06:04:48;13.50;48.10
12006;DHT22;6062;47.294;12.182;2022-10-30T06:07:14;13.50;48.30
12006;DHT22;6062;47.294;12.182;2022-10-30T06:09:40;13.50;48.40
12006;DHT22;6062;47.294;12.182;2022-10-30T06:12:06;13.60;48.60
12006;DHT22;6062;47.294;12.182;2022-10-30T06:14:31;13.70;48.70
12006;DHT22;6062;47.294;12.182;2022-10-30T06:16:57;13.80;48.80
12006;DHT22;6062;47.294;12.182;2022-10-30T06:19:23;14.00;49.10
12006;DHT22;6062;47.294;12.182;2022-10-30T06:21:48;14.20;49.10
12006;DHT22;6062;47.294;12.182;2022-10-30T06:24:14;14.40;49.30
12006;DHT22;6062;47.294;12.182;2022-10-30T06:26:40;14.70;49.20
12006;DHT22;6062;47.294;12.182;2022-10-30T06:29:06;15.10;49.00
12006;DHT22;6062;47.294;12.182;2022-10-30T06:31:31;15.40;48.60
12006;DHT22;6062;47.294;12.182;2022-10-30T06:33:57;15.70;48.20
12006;DHT22;6062;47.294;12.182;2022-10-30T06:36:23;16.10;47.90
12006;DHT22;6062;47.294;12.182;2022-10-30T06:38:48;16.50;47.20
12006;DHT22;6062;47.294;12.182;2022-10-30T06:41:14;16.90;46.80
12006;DHT22;6062;47.294;12.182;2022-10-30T06:43:40;17.30;46.10
12006;DHT22;6062;47.294;12.182;2022-10-30T06:46:05;17.70;45.30
12006;DHT22;6062;47.294;12.182;2022-10-30T06:48:31;18.10;44.80
12006;DHT22;6062;47.294;12.182;2022-10-30T06:50:58;18.40;44.10
12006;DHT22;6062;47.294;12.182;2022-10-30T06:53:25;18.70;43.50
12006;DHT22;6062;47.294;12.182;2022-10-30T06:55:59;19.10;43.20
12006;DHT22;6062;47.294;12.182;2022-10-30T06:58:27;19.40;42.40
12006;DHT22;6062;47.294;12.182;2022-10-30T07:00:54;19.80;42.20
12006;DHT22;6062;47.294;12.182;2022-10-30T07:03:20;20.10;41.60
12006;DHT22;6062;47.294;12.182;2022-10-30T07:05:46;20.40;41.20
12006;DHT22;6062;47.294;12.182;2022-10-30T07:08:12;20.80;41.10
12006;DHT22;6062;47.294;12.182;2022-10-30T07:10:38;21.20;40.80
12006;DHT22;6062;47.294;12.182;2022-10-30T07:13:04;21.60;40.40
12006;DHT22;6062;47.294;12.182;2022-10-30T07:15:30;22.10;40.00
12006;DHT22;6062;47.294;12.182;2022-10-30T07:18:00;22.70;39.30
12006;DHT22;6062;47.294;12.182;2022-10-30T07:20:28;23.30;37.90
12006;DHT22;6062;47.294;12.182;2022-10-30T07:22:56;23.80;37.50
12006;DHT22;6062;47.294;12.182;2022-10-30T07:25:21;24.40;36.60
12006;DHT22;6062;47.294;12.182;2022-10-30T07:27:49;25.00;35.40
12006;DHT22;6062;47.294;12.182;2022-10-30T07:30:21;25.60;34.20
12006;DHT22;6062;47.294;12.182;2022-10-30T07:33:02;26.10;33.60
12006;DHT22;6062;47.294;12.182;2022-10-30T07:35:30;26.70;32.80
12006;DHT22;6062;47.294;12.182;2022-10-30T07:38:04;27.20;32.00
12006;DHT22;6062;47.294;12.182;2022-10-30T07:40:31;27.70;30.80
12006;DHT22;6062;47.294;12.182;2022-10-30T07:42:58;28.30;30.80
12006;DHT22;6062;47.294;12.182;2022-10-30T07:45:28;28.70;30.00
12006;DHT22;6062;47.294;12.182;2022-10-30T07:47:55;29.10;28.90
12006;DHT22;6062;47.294;12.182;2022-10-30T07:50:21;29.50;28.50
12006;DHT22;6062;47.294;12.182;2022-10-30T07:52:47;29.90;28.40
12006;DHT22;6062;47.294;12.182;2022-10-30T07:55:13;30.20;27.90
12006;DHT22;6062;47.294;12.182;2022-10-30T07:57:40;30.40;27.20
12006;DHT22;6062;47.294;12.182;2022-10-30T08:00:12;30.70;26.90
12006;DHT22;6062;47.294;12.182;2022-10-30T08:02:39;30.90;26.20
12006;DHT22;6062;47.294;12.182;2022-10-30T08:05:05;31.20;26.40
12006;DHT22;6062;47.294;12.182;2022-10-30T08:07:33;31.40;26.50
12006;DHT22;6062;47.294;12.182;2022-10-30T08:10:00;31.60;26.00
12006;DHT22;6062;47.294;12.182;2022-10-30T08:12:26;31.70;25.20
12006;DHT22;6062;47.294;12.182;2022-10-30T08:14:52;31.90;25.00
12006;DHT22;6062;47.294;12.182;2022-10-30T08:17:19;32.10;25.40
12006;DHT22;6062;47.294;12.182;2022-10-30T08:19:45;32.20;25.30
12006;DHT22;6062;47.294;12.182;2022-10-30T08:22:12;32.40;25.10
12006;DHT22;6062;47.294;12.182;2022-10-30T08:24:38;32.60;25.10
12006;DHT22;6062;47.294;12.182;2022-10-30T08:27:04;32.80;25.00
12006;DHT22;6062;47.294;12.182;2022-10-30T08:29:30;33.10;24.80
12006;DHT22;6062;47.294;12.182;2022-10-30T08:31:57;33.30;24.10
12006;DHT22;6062;47.294;12.182;2022-10-30T08:34:23;33.60;23.90
12006;DHT22;6062;47.294;12.182;2022-10-30T08:36:51;33.80;23.80
12006;DHT22;6062;47.294;12.182;2022-10-30T08:39:17;34.10;23.20
12006;DHT22;6062;47.294;12.182;2022-10-30T08:41:44;34.30;23.50
12006;DHT22;6062;47.294;12.182;2022-10-30T08:44:10;34.50;23.20
12006;DHT22;6062;47.294;12.182;2022-10-30T08:46:35;34.80;23.30
12006;DHT22;6062;47.294;12.182;2022-10-30T08:49:01;35.00;22.70
12006;DHT22;6062;47.294;12.182;2022-10-30T08:51:27;35.20;22.10
12006;DHT22;6062;47.294;12.182;2022-10-30T08:53:52;35.40;21.60
12006;DHT22;6062;47.294;12.182;2022-10-30T08:56:18;35.40;21.70
12006;DHT22;6062;47.294;12.182;2022-10-30T08:58:44;35.40;22.10
12006;DHT22;6062;47.294;12.182;2022-10-30T09:01:09;35.30;20.90
12006;DHT22;6062;47.294;12.182;2022-10-30T09:03:35;35.20;21.20
12006;DHT22;6062;47.294;12.182;2022-10-30T09:06:01;35.10;21.60
12006;DHT22;6062;47.294;12.182;2022-10-30T09:08:27;35.10;22.00
12006;DHT22;6062;47.294;12.182;2022-10-30T09:10:54;35.10;21.80
12006;DHT22;6062;47.294;12.182;2022-10-30T09:13:24;35.20;21.90
12006;DHT22;6062;47.294;12.182;2022-10-30T09:15:50;35.20;21.80
12006;DHT22;6062;47.294;12.182;2022-10-30T09:18:16;35.30;20.80
12006;DHT22;6062;47.294;12.182;2022-10-30T09:20:41;35.20;21.20
12006;DHT22;6062;47.294;12.182;2022-10-30T09:23:07;35.20;21.70
12006;DHT22;6062;47.294;12.182;2022-10-30T09:25:33;35.20;21.80
12006;DHT22;6062;47.294;12.182;2022-10-30T09:27:59;35.20;20.90
12006;DHT22;6062;47.294;12.182;2022-10-30T09:30:25;35.20;20.90
12006;DHT22;6062;47.294;12.182;2022-10-30T09:32:57;35.30;21.00
12006;DHT22;6062;47.294;12.182;2022-10-30T09:35:25;35.30;21.00
12006;DHT22;6062;47.294;12.182;2022-10-30T09:37:50;35.30;21.00
12006;DHT22;6062;47.294;12.182;2022-10-30T09:42:49;35.50;21.20
12006;DHT22;6062;47.294;12.182;2022-10-30T09:48:27;35.80;20.60
12006;DHT22;6062;47.294;12.182;2022-10-30T09:51:21;35.90;20.90
12006;DHT22;6062;47.294;12.182;2022-10-30T09:54:00;36.00;20.90
12006;DHT22;6062;47.294;12.182;2022-10-30T09:56:46;36.10;21.00
12006;DHT22;6062;47.294;12.182;2022-10-30T10:05:20;36.40;20.00
12006;DHT22;6062;47.294;12.182;2022-10-30T10:07:53;36.50;20.60
12006;DHT22;6062;47.294;12.182;2022-10-30T10:10:45;36.50;20.00
12006;DHT22;6062;47.294;12.182;2022-10-30T10:13:38;36.60;20.40
12006;DHT22;6062;47.294;12.182;2022-10-30T10:16:24;36.70;20.00
12006;DHT22;6062;47.294;12.182;2022-10-30T10:21:39;36.50;19.30
12006;DHT22;6062;47.294;12.182;2022-10-30T10:24:17;36.20;19.10
12006;DHT22;6062;47.294;12.182;2022-10-30T10:27:09;35.90;19.90
12006;DHT22;6062;47.294;12.182;2022-10-30T10:44:49;34.80;20.50
12006;DHT22;6062;47.294;12.182;2022-10-30T10:50:28;34.20;20.20
12006;DHT22;6062;47.294;12.182;2022-10-30T10:53:14;34.10;20.80
12006;DHT22;6062;47.294;12.182;2022-10-30T10:55:50;33.90;21.30
12006;DHT22;6062;47.294;12.182;2022-10-30T10:58:36;33.90;20.40
12006;DHT22;6062;47.294;12.182;2022-10-30T11:01:14;33.90;20.70
12006;DHT22;6062;47.294;12.182;2022-10-30T11:03:57;33.80;20.50
12006;DHT22;6062;47.294;12.182;2022-10-30T11:06:30;33.70;21.00
12006;DHT22;6062;47.294;12.182;2022-10-30T11:09:25;33.60;20.50
12006;DHT22;6062;47.294;12.182;2022-10-30T11:11:54;33.50;20.60
12006;DHT22;6062;47.294;12.182;2022-10-30T11:14:23;33.40;21.00
12006;DHT22;6062;47.294;12.182;2022-10-30T11:17:09;33.30;21.20
12006;DHT22;6062;47.294;12.182;2022-10-30T11:19:43;33.30;21.40
12006;DHT22;6062;47.294;12.182;2022-10-30T11:22:28;33.40;21.10
12006;DHT22;6062;47.294;12.182;2022-10-30T11:25:17;33.40;21.30
12006;DHT22;6062;47.294;12.182;2022-10-30T11:27:47;33.50;20.40
12006;DHT22;6062;47.294;12.182;2022-10-30T11:30:20;33.50;21.00
12006;DHT22;6062;47.294;12.182;2022-10-30T11:32:48;33.50;21.20
12006;DHT22;6062;47.294;12.182;2022-10-30T11:35:18;33.60;21.50
12006;DHT22;6062;47.294;12.182;2022-10-30T11:37:47;33.60;21.50
12006;DHT22;6062;47.294;12.182;2022-10-30T11:40:22;33.70;21.20
12006;DHT22;6062;47.294;12.182;2022-10-30T11:42:59;33.70;21.20
12006;DHT22;6062;47.294;12.182;2022-10-30T11:45:47;33.80;21.50
12006;DHT22;6062;47.294;12.182;2022-10-30T11:48:25;33.80;20.40
12006;DHT22;6062;47.294;12.182;2022-10-30T11:51:03;33.80;20.80
12006;DHT22;6062;47.294;12.182;2022-10-30T11:53:39;33.80;20.80
12006;DHT22;6062;47.294;12.182;2022-10-30T11:56:21;33.80;20.60
12006;DHT22;6062;47.294;12.182;2022-10-30T11:58:53;33.80;21.00
12006;DHT22;6062;47.294;12.182;2022-10-30T12:01:26;33.80;20.90
12006;DHT22;6062;47.294;12.182;2022-10-30T12:03:55;33.70;20.60
12006;DHT22;6062;47.294;12.182;2022-10-30T12:11:37;33.30;21.00
12006;DHT22;6062;47.294;12.182;2022-10-30T12:14:18;33.20;20.10
12006;DHT22;6062;47.294;12.182;2022-10-30T12:16:48;32.90;20.00
12006;DHT22;6062;47.294;12.182;2022-10-30T12:19:17;32.50;20.20
12006;DHT22;6062;47.294;12.182;2022-10-30T12:21:50;32.00;20.00
12006;DHT22;6062;47.294;12.182;2022-10-30T12:27:03;30.80;21.40
12006;DHT22;6062;47.294;12.182;2022-10-30T12:29:39;30.30;21.90
12006;DHT22;6062;47.294;12.182;2022-10-30T12:32:17;29.70;21.60
12006;DHT22;6062;47.294;12.182;2022-10-30T12:34:59;29.20;21.10
12006;DHT22;6062;47.294;12.182;2022-10-30T12:37:33;28.50;21.60
12006;DHT22;6062;47.294;12.182;2022-10-30T12:40:13;27.80;22.30
12006;DHT22;6062;47.294;12.182;2022-10-30T12:45:47;26.60;22.70
12006;DHT22;6062;47.294;12.182;2022-10-30T12:48:24;26.00;23.50
12006;DHT22;6062;47.294;12.182;2022-10-30T12:53:48;25.10;25.30
12006;DHT22;6062;47.294;12.182;2022-10-30T12:56:28;24.80;25.40
12006;DHT22;6062;47.294;12.182;2022-10-30T13:04:48;23.90;25.90
12006;DHT22;6062;47.294;12.182;2022-10-30T13:07:28;23.60;25.70
12006;DHT22;6062;47.294;12.182;2022-10-30T13:12:56;23.00;26.80
12006;DHT22;6062;47.294;12.182;2022-10-30T13:15:35;22.70;27.40
12006;DHT22;6062;47.294;12.182;2022-10-30T13:18:16;22.50;27.50
12006;DHT22;6062;47.294;12.182;2022-10-30T13:23:54;22.20;27.70
12006;DHT22;6062;47.294;12.182;2022-10-30T13:44:14;21.50;28.40
12006;DHT22;6062;47.294;12.182;2022-10-30T13:49:53;21.30;28.60
12006;DHT22;6062;47.294;12.182;2022-10-30T13:52:37;21.10;29.10
12006;DHT22;6062;47.294;12.182;2022-10-30T13:55:21;21.00;29.90
12006;DHT22;6062;47.294;12.182;2022-10-30T14:04:02;20.70;29.60
12006;DHT22;6062;47.294;12.182;2022-10-30T14:06:50;20.60;30.00
12006;DHT22;6062;47.294;12.182;2022-10-30T14:20:52;20.30;30.00
12006;DHT22;6062;47.294;12.182;2022-10-30T14:23:34;20.20;30.60
12006;DHT22;6062;47.294;12.182;2022-10-30T14:28:37;20.10;31.20
12006;DHT22;6062;47.294;12.182;2022-10-30T14:31:13;20.00;31.30
12006;DHT22;6062;47.294;12.182;2022-10-30T14:33:51;20.00;31.20
12006;DHT22;6062;47.294;12.182;2022-10-30T14:36:21;19.90;31.80
12006;DHT22;6062;47.294;12.182;2022-10-30T14:39:24;19.90;31.90
12006;DHT22;6062;47.294;12.182;2022-10-30T14:45:05;19.70;32.10
12006;DHT22;6062;47.294;12.182;2022-10-30T14:51:44;19.60;32.00
12006;DHT22;6062;47.294;12.182;2022-10-30T14:54:29;19.50;32.10
12006;DHT22;6062;47.294;12.182;2022-10-30T14:57:41;19.50;32.30
12006;DHT22;6062;47.294;12.182;2022-10-30T15:03:13;19.40;32.40
12006;DHT22;6062;47.294;12.182;2022-10-30T15:14:31;19.20;32.90
12006;DHT22;6062;47.294;12.182;2022-10-30T15:17:00;19.10;33.10
12006;DHT22;6062;47.294;12.182;2022-10-30T15:19:27;19.10;33.10
12006;DHT22;6062;47.294;12.182;2022-10-30T15:21:55;19.00;33.10
12006;DHT22;6062;47.294;12.182;2022-10-30T15:24:23;19.00;33.40
12006;DHT22;6062;47.294;12.182;2022-10-30T15:26:53;19.00;33.50
12006;DHT22;6062;47.294;12.182;2022-10-30T15:29:24;18.90;33.60
12006;DHT22;6062;47.294;12.182;2022-10-30T15:32:14;18.80;33.60
12006;DHT22;6062;47.294;12.182;2022-10-30T15:34:56;18.80;34.50
12006;DHT22;6062;47.294;12.182;2022-10-30T15:37:27;18.70;34.80
12006;DHT22;6062;47.294;12.182;2022-10-30T15:40:23;18.70;34.70
12006;DHT22;6062;47.294;12.182;2022-10-30T15:42:49;18.60;34.90
12006;DHT22;6062;47.294;12.182;2022-10-30T15:45:19;18.50;35.00
12006;DHT22;6062;47.294;12.182;2022-10-30T15:47:56;18.50;35.10
12006;DHT22;6062;47.294;12.182;2022-10-30T15:50:25;18.40;35.30
12006;DHT22;6062;47.294;12.182;2022-10-30T15:52:51;18.30;35.30
12006;DHT22;6062;47.294;12.182;2022-10-30T15:55:21;18.20;35.50
12006;DHT22;6062;47.294;12.182;2022-10-30T15:57:53;18.20;35.70
12006;DHT22;6062;47.294;12.182;2022-10-30T16:00:24;18.10;35.60
12006;DHT22;6062;47.294;12.182;2022-10-30T16:03:16;18.00;35.60
12006;DHT22;6062;47.294;12.182;2022-10-30T16:05:42;17.90;35.80
12006;DHT22;6062;47.294;12.182;2022-10-30T16:08:23;17.80;36.10
12006;DHT22;6062;47.294;12.182;2022-10-30T16:10:52;17.80;36.70
12006;DHT22;6062;47.294;12.182;2022-10-30T16:13:22;17.70;36.60
12006;DHT22;6062;47.294;12.182;2022-10-30T16:15:53;17.60;36.90
12006;DHT22;6062;47.294;12.182;2022-10-30T16:18:22;17.50;36.80
12006;DHT22;6062;47.294;12.182;2022-10-30T16:21:07;17.40;37.10
12006;DHT22;6062;47.294;12.182;2022-10-30T16:24:01;17.30;37.50
12006;DHT22;6062;47.294;12.182;2022-10-30T16:26:31;17.20;37.40
12006;DHT22;6062;47.294;12.182;2022-10-30T16:31:44;17.00;38.00
12006;DHT22;6062;47.294;12.182;2022-10-30T16:34:29;16.80;37.60
12006;DHT22;6062;47.294;12.182;2022-10-30T16:37:00;16.80;38.30
12006;DHT22;6062;47.294;12.182;2022-10-30T16:39:28;16.70;38.10
12006;DHT22;6062;47.294;12.182;2022-10-30T16:41:57;16.60;38.30
12006;DHT22;6062;47.294;12.182;2022-10-30T16:44:32;16.50;38.40
12006;DHT22;6062;47.294;12.182;2022-10-30T16:47:21;16.50;38.60
12006;DHT22;6062;47.294;12.182;2022-10-30T16:49:54;16.40;38.90
12006;DHT22;6062;47.294;12.182;2022-10-30T16:52:35;16.40;39.00
12006;DHT22;6062;47.294;12.182;2022-10-30T16:55:06;16.40;39.30
12006;DHT22;6062;47.294;12.182;2022-10-30T16:57:41;16.30;39.30
12006;DHT22;6062;47.294;12.182;2022-10-30T17:00:21;16.30;39.30
12006;DHT22;6062;47.294;12.182;2022-10-30T17:02:50;16.30;39.80
12006;DHT22;6062;47.294;12.182;2022-10-30T17:05:24;16.30;39.60
12006;DHT22;6062;47.294;12.182;2022-10-30T17:07:58;16.20;39.90
12006;DHT22;6062;47.294;12.182;2022-10-30T17:13:36;16.20;39.80
12006;DHT22;6062;47.294;12.182;2022-10-30T17:18:40;16.10;40.10
12006;DHT22;6062;47.294;12.182;2022-10-30T17:21:15;16.10;40.00
12006;DHT22;6062;47.294;12.182;2022-10-30T17:23:45;16.10;40.10
12006;DHT22;6062;47.294;12.182;2022-10-30T17:26:12;16.10;40.00
12006;DHT22;6062;47.294;12.182;2022-10-30T17:28:39;16.00;40.20
12006;DHT22;6062;47.294;12.182;2022-10-30T17:34:17;16.00;40.60
12006;DHT22;6062;47.294;12.182;2022-10-30T17:36:45;16.00;40.50
12006;DHT22;6062;47.294;12.182;2022-10-30T17:39:12;16.00;40.40
12006;DHT22;6062;47.294;12.182;2022-10-30T17:41:38;16.00;40.50
12006;DHT22;6062;47.294;12.182;2022-10-30T17:44:14;16.00;40.60
12006;DHT22;6062;47.294;12.182;2022-10-30T17:46:43;16.00;40.60
12006;DHT22;6062;47.294;12.182;2022-10-30T17:49:28;16.00;40.60
12006;DHT22;6062;47.294;12.182;2022-10-30T17:51:56;15.90;40.70
12006;DHT22;6062;47.294;12.182;2022-10-30T17:54:22;15.90;40.60
12006;DHT22;6062;47.294;12.182;2022-10-30T17:56:49;15.90;40.70
12006;DHT22;6062;47.294;12.182;2022-10-30T17:59:15;15.90;41.30
12006;DHT22;6062;47.294;12.182;2022-10-30T18:01:41;15.90;40.80
12006;DHT22;6062;47.294;12.182;2022-10-30T18:04:12;15.80;40.90
12006;DHT22;6062;47.294;12.182;2022-10-30T18:06:41;15.80;41.10
12006;DHT22;6062;47.294;12.182;2022-10-30T18:09:07;15.80;41.00
12006;DHT22;6062;47.294;12.182;2022-10-30T18:11:33;15.70;41.00
12006;DHT22;6062;47.294;12.182;2022-10-30T18:13:59;15.70;41.10
12006;DHT22;6062;47.294;12.182;2022-10-30T18:16:26;15.70;41.10
12006;DHT22;6062;47.294;12.182;2022-10-30T18:18:51;15.60;41.20